createdAt,value
2018-02-27T00:00:13.435Z,1020.21
2018-02-27T00:01:13.453Z,1020.22
2018-02-27T00:02:13.440Z,1020.21
2018-02-27T00:03:13.454Z,1020.12
2018-02-27T00:04:13.457Z,1020.16
2018-02-27T00:05:13.454Z,1020.17
2018-02-27T00:06:13.460Z,1020.07
2018-02-27T00:07:13.466Z,1020.10
2018-02-27T00:08:13.462Z,1020.06
2018-02-27T00:09:13.469Z,1020.10
2018-02-27T00:10:13.493Z,1020.06
2018-02-27T00:11:13.479Z,1020.06
2018-02-27T00:12:13.490Z,1020.06
2018-02-27T00:13:13.481Z,1020.09
2018-02-27T00:14:13.487Z,1020.10
2018-02-27T00:15:13.489Z,1020.13
2018-02-27T00:16:13.495Z,1020.11
2018-02-27T00:17:13.513Z,1020.11
2018-02-27T00:18:13.495Z,1020.13
2018-02-27T00:19:13.510Z,1020.13
2018-02-27T00:20:13.507Z,1020.13
2018-02-27T00:21:13.515Z,1020.12
2018-02-27T00:22:13.509Z,1020.15
2018-02-27T00:23:13.518Z,1020.10
2018-02-27T00:24:13.522Z,1020.11
2018-02-27T00:25:13.525Z,1020.12
2018-02-27T00:26:13.529Z,1020.13
2018-02-27T00:27:13.531Z,1020.12
2018-02-27T00:28:13.544Z,1020.11
2018-02-27T00:29:13.538Z,1020.12
2018-02-27T00:30:13.550Z,1020.15
2018-02-27T00:31:13.535Z,1020.14
2018-02-27T00:32:13.543Z,1020.14
2018-02-27T00:33:13.564Z,1020.09
2018-02-27T00:34:13.548Z,1020.07
2018-02-27T00:35:13.560Z,1020.08
2018-02-27T00:36:13.558Z,1020.10
2018-02-27T00:37:13.566Z,1020.06
2018-02-27T00:38:13.571Z,1020.04
2018-02-27T00:39:13.570Z,1020.04
2018-02-27T00:40:13.566Z,1019.99
2018-02-27T00:41:13.583Z,1020.04
2018-02-27T00:42:13.582Z,1020.02
2018-02-27T00:43:13.592Z,1020.02
2018-02-27T00:44:13.590Z,1020.04
2018-02-27T00:45:13.584Z,1020.00
2018-02-27T00:46:13.604Z,1020.01
2018-02-27T00:47:13.590Z,1020.01
2018-02-27T00:48:13.605Z,1019.99
2018-02-27T00:49:13.600Z,1019.98
2018-02-27T00:50:13.604Z,1019.98
2018-02-27T00:51:13.618Z,1019.99
2018-02-27T00:52:13.618Z,1019.98
2018-02-27T00:53:13.626Z,1020.00
2018-02-27T00:54:13.617Z,1019.98
2018-02-27T00:55:13.623Z,1019.96
2018-02-27T00:56:13.618Z,1019.99
2018-02-27T00:57:13.631Z,1019.93
2018-02-27T00:58:13.627Z,1019.97
2018-02-27T00:59:13.639Z,1019.95
2018-02-27T01:00:13.647Z,1019.89
2018-02-27T01:01:13.640Z,1019.92
2018-02-27T01:02:13.654Z,1019.95
2018-02-27T01:03:13.649Z,1019.97
2018-02-27T01:04:13.661Z,1019.95
2018-02-27T01:05:13.656Z,1019.92
2018-02-27T01:06:13.657Z,1019.94
2018-02-27T01:07:13.665Z,1019.93
2018-02-27T01:08:13.668Z,1019.89
2018-02-27T01:09:13.672Z,1019.85
2018-02-27T01:10:13.674Z,1019.87
2018-02-27T01:11:13.686Z,1019.83
2018-02-27T01:12:13.676Z,1019.79
2018-02-27T01:13:13.695Z,1019.84
2018-02-27T01:14:13.679Z,1019.80
2018-02-27T01:15:13.697Z,1019.82
2018-02-27T01:16:13.688Z,1019.80
2018-02-27T01:17:13.699Z,1019.74
2018-02-27T01:18:13.696Z,1019.79
2018-02-27T01:19:13.700Z,1019.77
2018-02-27T01:20:13.717Z,1019.80
2018-02-27T01:21:13.710Z,1019.82
2018-02-27T01:22:13.736Z,1019.82
2018-02-27T01:23:13.711Z,1019.78
2018-02-27T01:24:13.719Z,1019.79
2018-02-27T01:25:13.727Z,1019.75
2018-02-27T01:26:13.723Z,1019.75
2018-02-27T01:27:13.723Z,1019.78
2018-02-27T01:28:13.741Z,1019.80
2018-02-27T01:29:13.724Z,1019.76
2018-02-27T01:30:13.740Z,1019.74
2018-02-27T01:31:13.732Z,1019.73
2018-02-27T01:32:13.741Z,1019.72
2018-02-27T01:33:13.742Z,1019.69
2018-02-27T01:34:13.754Z,1019.66
2018-02-27T01:35:13.757Z,1019.68
2018-02-27T01:36:13.766Z,1019.67
2018-02-27T01:37:13.760Z,1019.65
2018-02-27T01:38:13.767Z,1019.64
2018-02-27T01:39:13.776Z,1019.63
2018-02-27T01:40:13.769Z,1019.65
2018-02-27T01:41:13.772Z,1019.63
2018-02-27T01:42:13.770Z,1019.67
2018-02-27T01:43:13.787Z,1019.66
2018-02-27T01:44:13.780Z,1019.61
2018-02-27T01:45:13.781Z,1019.63
2018-02-27T01:46:13.790Z,1019.60
2018-02-27T01:47:13.791Z,1019.62
2018-02-27T01:48:13.793Z,1019.59
2018-02-27T01:49:13.807Z,1019.62
2018-02-27T01:50:13.801Z,1019.58
2018-02-27T01:51:13.807Z,1019.57
2018-02-27T01:52:13.810Z,1019.57
2018-02-27T01:53:13.801Z,1019.57
2018-02-27T01:54:13.815Z,1019.56
2018-02-27T01:55:13.807Z,1019.55
2018-02-27T01:56:13.822Z,1019.55
2018-02-27T01:57:13.817Z,1019.50
2018-02-27T01:58:13.826Z,1019.50
2018-02-27T01:59:13.823Z,1019.48
2018-02-27T02:00:13.836Z,1019.45
2018-02-27T02:01:13.822Z,1019.48
2018-02-27T02:02:13.836Z,1019.47
2018-02-27T02:03:13.845Z,1019.47
2018-02-27T02:04:13.841Z,1019.47
2018-02-27T02:05:13.855Z,1019.47
2018-02-27T02:06:13.847Z,1019.47
2018-02-27T02:07:13.853Z,1019.48
2018-02-27T02:08:13.850Z,1019.44
2018-02-27T02:09:13.855Z,1019.45
2018-02-27T02:10:13.857Z,1019.43
2018-02-27T02:11:13.863Z,1019.40
2018-02-27T02:12:13.857Z,1019.37
2018-02-27T02:13:13.870Z,1019.42
2018-02-27T02:14:13.865Z,1019.39
2018-02-27T02:15:13.878Z,1019.37
2018-02-27T02:16:13.874Z,1019.34
2018-02-27T02:17:13.878Z,1019.36
2018-02-27T02:18:13.879Z,1019.32
2018-02-27T02:19:13.882Z,1019.31
2018-02-27T02:20:13.880Z,1019.30
2018-02-27T02:21:13.894Z,1019.29
2018-02-27T02:22:13.899Z,1019.31
2018-02-27T02:23:13.898Z,1019.29
2018-02-27T02:24:13.908Z,1019.27
2018-02-27T02:25:13.902Z,1019.29
2018-02-27T02:26:13.911Z,1019.31
2018-02-27T02:27:13.912Z,1019.24
2018-02-27T02:28:13.912Z,1019.29
2018-02-27T02:29:13.912Z,1019.29
2018-02-27T02:30:13.919Z,1019.24
2018-02-27T02:31:13.920Z,1019.26
2018-02-27T02:32:13.930Z,1019.25
2018-02-27T02:33:13.925Z,1019.25
2018-02-27T02:34:13.939Z,1019.24
2018-02-27T02:35:13.924Z,1019.24
2018-02-27T02:36:13.935Z,1019.22
2018-02-27T02:37:13.944Z,1019.19
2018-02-27T02:38:13.949Z,1019.19
2018-02-27T02:39:13.958Z,1019.16
2018-02-27T02:40:13.957Z,1019.15
2018-02-27T02:41:13.955Z,1019.16
2018-02-27T02:42:13.954Z,1019.16
2018-02-27T02:43:13.959Z,1019.18
2018-02-27T02:44:13.956Z,1019.22
2018-02-27T02:45:13.969Z,1019.21
2018-02-27T02:46:13.966Z,1019.19
2018-02-27T02:47:13.982Z,1019.19
2018-02-27T02:48:13.968Z,1019.16
2018-02-27T02:49:13.973Z,1019.15
2018-02-27T02:50:13.983Z,1019.16
2018-02-27T02:51:13.986Z,1019.12
2018-02-27T02:52:13.978Z,1019.10
2018-02-27T02:53:13.995Z,1019.13
2018-02-27T02:54:13.987Z,1019.11
2018-02-27T02:55:13.994Z,1019.08
2018-02-27T02:56:13.996Z,1019.08
2018-02-27T02:57:13.994Z,1019.06
2018-02-27T02:58:13.995Z,1019.06
2018-02-27T02:59:14.000Z,1019.11
2018-02-27T03:00:13.996Z,1019.08
2018-02-27T03:01:14.010Z,1019.04
2018-02-27T03:02:14.007Z,1019.04
2018-02-27T03:03:14.022Z,1019.04
2018-02-27T03:04:14.014Z,1018.99
2018-02-27T03:05:14.021Z,1018.99
2018-02-27T03:06:14.038Z,1019.05
2018-02-27T03:07:14.026Z,1018.99
2018-02-27T03:08:14.032Z,1019.00
2018-02-27T03:09:14.030Z,1019.00
2018-02-27T03:10:14.043Z,1019.00
2018-02-27T03:11:14.045Z,1019.00
2018-02-27T03:12:14.046Z,1018.99
2018-02-27T03:13:14.045Z,1019.01
2018-02-27T03:14:14.056Z,1019.02
2018-02-27T03:15:14.045Z,1019.01
2018-02-27T03:16:14.053Z,1019.00
2018-02-27T03:17:14.054Z,1019.01
2018-02-27T03:18:14.065Z,1018.99
2018-02-27T03:19:14.057Z,1018.97
2018-02-27T03:20:14.067Z,1018.99
2018-02-27T03:21:14.058Z,1018.99
2018-02-27T03:22:14.078Z,1018.99
2018-02-27T03:23:14.067Z,1018.96
2018-02-27T03:24:14.075Z,1018.97
2018-02-27T03:25:14.076Z,1018.93
2018-02-27T03:26:14.108Z,1018.93
2018-02-27T03:27:14.079Z,1018.85
2018-02-27T03:28:14.087Z,1018.90
2018-02-27T03:29:14.086Z,1018.87
2018-02-27T03:30:14.090Z,1018.83
2018-02-27T03:31:14.092Z,1018.87
2018-02-27T03:32:14.111Z,1018.84
2018-02-27T03:33:14.094Z,1018.82
2018-02-27T03:34:14.111Z,1018.79
2018-02-27T03:35:14.108Z,1018.77
2018-02-27T03:36:14.104Z,1018.77
2018-02-27T03:37:14.106Z,1018.79
2018-02-27T03:38:14.117Z,1018.77
2018-02-27T03:39:14.124Z,1018.74
2018-02-27T03:40:14.121Z,1018.74
2018-02-27T03:41:14.132Z,1018.68
2018-02-27T03:42:14.132Z,1018.72
2018-02-27T03:43:14.128Z,1018.66
2018-02-27T03:44:14.125Z,1018.68
2018-02-27T03:45:14.137Z,1018.65
2018-02-27T03:46:14.131Z,1018.67
2018-02-27T03:47:14.144Z,1018.69
2018-02-27T03:48:14.144Z,1018.66
2018-02-27T03:49:14.144Z,1018.66
2018-02-27T03:50:14.146Z,1018.68
2018-02-27T03:51:14.151Z,1018.63
2018-02-27T03:52:14.167Z,1018.63
2018-02-27T03:53:14.166Z,1018.62
2018-02-27T03:54:14.152Z,1018.65
2018-02-27T03:55:14.172Z,1018.63
2018-02-27T03:56:14.165Z,1018.60
2018-02-27T03:57:14.166Z,1018.61
2018-02-27T03:58:14.173Z,1018.57
2018-02-27T03:59:14.172Z,1018.61
2018-02-27T04:00:14.174Z,1018.62
2018-02-27T04:01:14.184Z,1018.59
2018-02-27T04:02:14.182Z,1018.60
2018-02-27T04:03:14.188Z,1018.55
2018-02-27T04:04:14.183Z,1018.55
2018-02-27T04:05:14.192Z,1018.60
2018-02-27T04:06:14.188Z,1018.57
2018-02-27T04:07:14.192Z,1018.58
2018-02-27T04:08:14.229Z,1018.62
2018-02-27T04:09:14.211Z,1018.58
2018-02-27T04:10:14.197Z,1018.58
2018-02-27T04:11:14.213Z,1018.55
2018-02-27T04:12:14.206Z,1018.53
2018-02-27T04:13:14.210Z,1018.55
2018-02-27T04:14:14.216Z,1018.51
2018-02-27T04:15:14.221Z,1018.54
2018-02-27T04:16:14.209Z,1018.54
2018-02-27T04:17:14.223Z,1018.54
2018-02-27T04:18:14.216Z,1018.50
2018-02-27T04:19:14.236Z,1018.52
2018-02-27T04:20:14.232Z,1018.54
2018-02-27T04:21:14.231Z,1018.53
2018-02-27T04:22:14.235Z,1018.55
2018-02-27T04:23:14.242Z,1018.59
2018-02-27T04:24:14.233Z,1018.58
2018-02-27T04:25:14.250Z,1018.51
2018-02-27T04:26:14.239Z,1018.58
2018-02-27T04:27:14.250Z,1018.58
2018-02-27T04:28:14.246Z,1018.51
2018-02-27T04:29:14.250Z,1018.53
2018-02-27T04:30:14.260Z,1018.55
2018-02-27T04:31:14.262Z,1018.51
2018-02-27T04:32:14.254Z,1018.52
2018-02-27T04:33:14.267Z,1018.55
2018-02-27T04:34:14.265Z,1018.50
2018-02-27T04:35:14.269Z,1018.50
2018-02-27T04:36:14.267Z,1018.46
2018-02-27T04:37:14.270Z,1018.52
2018-02-27T04:38:14.274Z,1018.51
2018-02-27T04:39:14.283Z,1018.51
2018-02-27T04:40:14.275Z,1018.52
2018-02-27T04:41:14.294Z,1018.53
2018-02-27T04:42:14.288Z,1018.52
2018-02-27T04:43:14.292Z,1018.51
2018-02-27T04:44:14.287Z,1018.50
2018-02-27T04:45:14.301Z,1018.50
2018-02-27T04:46:14.302Z,1018.46
2018-02-27T04:47:14.300Z,1018.47
2018-02-27T04:48:14.302Z,1018.44
2018-02-27T04:49:14.309Z,1018.42
2018-02-27T04:50:14.310Z,1018.44
2018-02-27T04:51:14.317Z,1018.41
2018-02-27T04:52:14.317Z,1018.40
2018-02-27T04:53:14.306Z,1018.40
2018-02-27T04:54:14.323Z,1018.39
2018-02-27T04:55:14.327Z,1018.40
2018-02-27T04:56:14.322Z,1018.37
2018-02-27T04:57:14.325Z,1018.38
2018-02-27T04:58:14.323Z,1018.37
2018-02-27T04:59:14.329Z,1018.39
2018-02-27T05:00:14.344Z,1018.37
2018-02-27T05:01:14.324Z,1018.37
2018-02-27T05:02:14.343Z,1018.38
2018-02-27T05:03:14.336Z,1018.36
2018-02-27T05:04:14.340Z,1018.35
2018-02-27T05:05:14.336Z,1018.28
2018-02-27T05:06:14.350Z,1018.28
2018-02-27T05:07:14.343Z,1018.33
2018-02-27T05:08:14.351Z,1018.28
2018-02-27T05:09:14.343Z,1018.24
2018-02-27T05:10:14.359Z,1018.25
2018-02-27T05:11:14.357Z,1018.27
2018-02-27T05:12:14.360Z,1018.22
2018-02-27T05:13:14.380Z,1018.15
2018-02-27T05:14:14.363Z,1018.25
2018-02-27T05:15:14.364Z,1018.22
2018-02-27T05:16:14.372Z,1018.19
2018-02-27T05:17:14.371Z,1018.18
2018-02-27T05:18:14.384Z,1018.18
2018-02-27T05:19:14.372Z,1018.17
2018-02-27T05:20:14.382Z,1018.13
2018-02-27T05:21:14.388Z,1018.13
2018-02-27T05:22:14.375Z,1018.15
2018-02-27T05:23:14.389Z,1018.14
2018-02-27T05:24:14.387Z,1018.15
2018-02-27T05:25:14.389Z,1018.15
2018-02-27T05:26:14.395Z,1018.17
2018-02-27T05:27:14.391Z,1018.15
2018-02-27T05:28:14.389Z,1018.10
2018-02-27T05:29:14.399Z,1018.08
2018-02-27T05:30:14.394Z,1018.11
2018-02-27T05:31:14.407Z,1018.05
2018-02-27T05:32:14.405Z,1018.05
2018-02-27T05:33:14.409Z,1018.11
2018-02-27T05:34:14.408Z,1018.12
2018-02-27T05:35:14.419Z,1018.08
2018-02-27T05:36:14.417Z,1018.10
2018-02-27T05:37:14.421Z,1018.12
2018-02-27T05:38:14.427Z,1018.10
2018-02-27T05:39:14.423Z,1018.11
2018-02-27T05:40:14.428Z,1018.06
2018-02-27T05:41:14.452Z,1018.08
2018-02-27T05:42:14.426Z,1018.07
2018-02-27T05:43:14.440Z,1018.07
2018-02-27T05:44:14.440Z,1018.04
2018-02-27T05:45:14.440Z,1018.05
2018-02-27T05:46:14.447Z,1018.09
2018-02-27T05:47:14.444Z,1018.07
2018-02-27T05:48:14.441Z,1018.06
2018-02-27T05:49:14.456Z,1018.04
2018-02-27T05:50:14.447Z,1018.06
2018-02-27T05:51:14.457Z,1018.08
2018-02-27T05:52:14.456Z,1018.04
2018-02-27T05:53:14.451Z,1018.03
2018-02-27T05:54:14.462Z,1018.04
2018-02-27T05:55:14.455Z,1018.04
2018-02-27T05:56:14.466Z,1018.04
2018-02-27T05:57:14.464Z,1018.02
2018-02-27T05:58:14.469Z,1018.04
2018-02-27T05:59:14.475Z,1017.98
2018-02-27T06:00:14.485Z,1017.98
2018-02-27T06:01:14.483Z,1018.03
2018-02-27T06:02:14.484Z,1018.02
2018-02-27T06:03:14.477Z,1018.06
2018-02-27T06:04:14.490Z,1018.07
2018-02-27T06:05:14.484Z,1018.04
2018-02-27T06:06:14.489Z,1018.05
2018-02-27T06:07:14.488Z,1018.03
2018-02-27T06:08:14.520Z,1018.05
2018-02-27T06:09:14.490Z,1018.06
2018-02-27T06:10:14.503Z,1018.08
2018-02-27T06:11:14.520Z,1018.09
2018-02-27T06:12:14.510Z,1018.13
2018-02-27T06:13:14.505Z,1018.15
2018-02-27T06:14:14.512Z,1018.12
2018-02-27T06:15:14.512Z,1018.12
2018-02-27T06:16:14.521Z,1018.19
2018-02-27T06:17:14.517Z,1018.09
2018-02-27T06:18:14.531Z,1018.13
2018-02-27T06:19:14.519Z,1018.13
2018-02-27T06:20:14.532Z,1018.10
2018-02-27T06:21:14.535Z,1018.11
2018-02-27T06:22:14.539Z,1018.12
2018-02-27T06:23:14.538Z,1018.14
2018-02-27T06:24:14.541Z,1018.07
2018-02-27T06:25:14.538Z,1018.09
2018-02-27T06:26:14.549Z,1018.13
2018-02-27T06:27:14.539Z,1018.11
2018-02-27T06:28:14.548Z,1018.12
2018-02-27T06:29:14.549Z,1018.12
2018-02-27T06:30:14.552Z,1018.10
2018-02-27T06:31:14.572Z,1018.13
2018-02-27T06:32:14.556Z,1018.09
2018-02-27T06:33:14.554Z,1018.13
2018-02-27T06:34:14.569Z,1018.11
2018-02-27T06:35:14.564Z,1018.09
2018-02-27T06:36:14.568Z,1018.09
2018-02-27T06:37:14.575Z,1018.10
2018-02-27T06:38:14.572Z,1018.12
2018-02-27T06:39:14.572Z,1018.13
2018-02-27T06:40:14.584Z,1018.16
2018-02-27T06:41:14.573Z,1018.12
2018-02-27T06:42:14.588Z,1018.15
2018-02-27T06:43:14.586Z,1018.10
2018-02-27T06:44:14.590Z,1018.10
2018-02-27T06:45:14.592Z,1018.10
2018-02-27T06:46:14.593Z,1018.09
2018-02-27T06:47:14.634Z,1018.08
2018-02-27T06:48:14.602Z,1018.09
2018-02-27T06:49:14.596Z,1018.07
2018-02-27T06:50:14.616Z,1018.03
2018-02-27T06:51:14.615Z,1018.02
2018-02-27T06:52:14.612Z,1018.07
2018-02-27T06:53:14.619Z,1018.05
2018-02-27T06:54:14.614Z,1018.07
2018-02-27T06:55:14.673Z,1018.01
2018-02-27T06:56:14.623Z,1018.05
2018-02-27T06:57:14.618Z,1018.09
2018-02-27T06:58:14.648Z,1018.05
2018-02-27T06:59:14.630Z,1018.05
2018-02-27T07:00:14.637Z,1018.04
2018-02-27T07:01:14.640Z,1018.07
2018-02-27T07:02:14.638Z,1018.08
2018-02-27T07:03:14.640Z,1018.08
2018-02-27T07:04:14.654Z,1018.14
2018-02-27T07:05:14.646Z,1018.13
2018-02-27T07:06:14.650Z,1018.17
2018-02-27T07:07:14.661Z,1018.21
2018-02-27T07:08:14.653Z,1018.19
2018-02-27T07:09:14.675Z,1018.15
2018-02-27T07:10:14.674Z,1018.19
2018-02-27T07:11:14.672Z,1018.15
2018-02-27T07:12:14.668Z,1018.16
2018-02-27T07:13:14.674Z,1018.17
2018-02-27T07:14:14.679Z,1018.15
2018-02-27T07:15:14.684Z,1018.18
2018-02-27T07:16:14.693Z,1018.12
2018-02-27T07:17:14.700Z,1018.16
2018-02-27T07:18:14.691Z,1018.06
2018-02-27T07:19:14.692Z,1018.07
2018-02-27T07:20:14.712Z,1018.06
2018-02-27T07:21:14.694Z,1018.06
2018-02-27T07:22:14.707Z,1018.04
2018-02-27T07:23:14.721Z,1018.02
2018-02-27T07:24:14.711Z,1017.99
2018-02-27T07:25:14.728Z,1018.02
2018-02-27T07:26:14.730Z,1017.98
2018-02-27T07:27:14.724Z,1017.96
2018-02-27T07:28:14.734Z,1018.02
2018-02-27T07:29:14.733Z,1018.01
2018-02-27T07:30:14.747Z,1017.92
2018-02-27T07:31:14.739Z,1017.92
2018-02-27T07:32:14.752Z,1017.94
2018-02-27T07:33:14.760Z,1017.98
2018-02-27T07:34:14.753Z,1018.01
2018-02-27T07:35:14.766Z,1017.97
2018-02-27T07:36:14.775Z,1017.96
2018-02-27T07:37:14.763Z,1018.01
2018-02-27T07:38:14.772Z,1017.95
2018-02-27T07:39:14.773Z,1017.94
2018-02-27T07:40:14.773Z,1017.98
2018-02-27T07:41:14.793Z,1017.96
2018-02-27T07:42:14.782Z,1017.93
2018-02-27T07:43:14.808Z,1017.96
2018-02-27T07:44:14.809Z,1017.94
2018-02-27T07:45:14.797Z,1017.97
2018-02-27T07:46:14.813Z,1017.96
2018-02-27T07:47:14.820Z,1017.95
2018-02-27T07:48:14.815Z,1017.99
2018-02-27T07:49:14.818Z,1017.93
2018-02-27T07:50:14.836Z,1017.90
2018-02-27T07:51:14.832Z,1017.95
2018-02-27T07:52:14.831Z,1017.92
2018-02-27T07:53:14.843Z,1017.91
2018-02-27T07:54:14.838Z,1017.86
2018-02-27T07:55:14.859Z,1017.90
2018-02-27T07:56:14.866Z,1017.88
2018-02-27T07:57:14.870Z,1017.86
2018-02-27T07:58:14.870Z,1017.82
2018-02-27T07:59:14.869Z,1017.84
2018-02-27T08:00:14.883Z,1017.84
2018-02-27T08:01:14.890Z,1017.82
2018-02-27T08:02:14.882Z,1017.81
2018-02-27T08:03:14.895Z,1017.83
2018-02-27T08:04:14.911Z,1017.83
2018-02-27T08:05:14.950Z,1017.80
2018-02-27T08:06:14.919Z,1017.77
2018-02-27T08:07:14.916Z,1017.74
2018-02-27T08:08:14.919Z,1017.75
2018-02-27T08:09:14.931Z,1017.78
2018-02-27T08:10:14.928Z,1017.77
2018-02-27T08:11:14.950Z,1017.79
2018-02-27T08:12:14.938Z,1017.74
2018-02-27T08:13:14.951Z,1017.77
2018-02-27T08:14:14.957Z,1017.77
2018-02-27T08:15:14.954Z,1017.76
2018-02-27T08:16:14.991Z,1017.78
2018-02-27T08:17:14.975Z,1017.73
2018-02-27T08:18:14.982Z,1017.75
2018-02-27T08:19:14.983Z,1017.76
2018-02-27T08:20:14.990Z,1017.75
2018-02-27T08:21:14.991Z,1017.74
2018-02-27T08:22:14.990Z,1017.72
2018-02-27T08:23:15.006Z,1017.71
2018-02-27T08:24:15.008Z,1017.77
2018-02-27T08:25:15.023Z,1017.73
2018-02-27T08:26:15.012Z,1017.76
2018-02-27T08:27:15.023Z,1017.71
2018-02-27T08:28:15.032Z,1017.75
2018-02-27T08:29:15.024Z,1017.80
2018-02-27T08:30:15.045Z,1017.75
2018-02-27T08:31:15.041Z,1017.82
2018-02-27T08:32:15.049Z,1017.77
2018-02-27T08:33:15.052Z,1017.83
2018-02-27T08:34:15.084Z,1017.81
2018-02-27T08:35:15.068Z,1017.85
2018-02-27T08:36:15.065Z,1017.84
2018-02-27T08:37:15.068Z,1017.84
2018-02-27T08:38:15.083Z,1017.85
2018-02-27T08:39:15.088Z,1017.84
2018-02-27T08:40:15.084Z,1017.85
2018-02-27T08:41:15.098Z,1017.87
2018-02-27T08:42:15.100Z,1017.87
2018-02-27T08:43:15.122Z,1017.86
2018-02-27T08:44:15.184Z,1017.90
2018-02-27T08:45:15.114Z,1017.89
2018-02-27T08:46:15.129Z,1017.89
2018-02-27T08:47:15.140Z,1017.88
2018-02-27T08:48:15.143Z,1017.90
2018-02-27T08:49:15.157Z,1017.92
2018-02-27T08:50:15.147Z,1017.91
2018-02-27T08:51:15.179Z,1017.89
2018-02-27T08:52:15.169Z,1017.94
2018-02-27T08:53:15.174Z,1017.88
2018-02-27T08:54:15.193Z,1017.85
2018-02-27T08:55:15.180Z,1017.88
2018-02-27T08:56:15.194Z,1017.80
2018-02-27T08:57:15.202Z,1017.81
2018-02-27T08:58:15.213Z,1017.82
2018-02-27T08:59:15.218Z,1017.80
2018-02-27T09:00:15.224Z,1017.77
2018-02-27T09:01:15.220Z,1017.78
2018-02-27T09:02:15.236Z,1017.77
2018-02-27T09:03:15.239Z,1017.76
2018-02-27T09:04:15.251Z,1017.76
2018-02-27T09:05:15.261Z,1017.75
2018-02-27T09:06:15.270Z,1017.76
2018-02-27T09:07:15.267Z,1017.73
2018-02-27T09:08:15.278Z,1017.77
2018-02-27T09:09:15.286Z,1017.74
2018-02-27T09:10:15.290Z,1017.77
2018-02-27T09:11:15.297Z,1017.70
2018-02-27T09:12:15.305Z,1017.75
2018-02-27T09:13:15.330Z,1017.70
2018-02-27T09:14:15.326Z,1017.69
2018-02-27T09:15:15.343Z,1017.74
2018-02-27T09:16:15.333Z,1017.74
2018-02-27T09:17:15.346Z,1017.75
2018-02-27T09:18:15.349Z,1017.73
2018-02-27T09:19:15.426Z,1017.72
2018-02-27T09:20:15.372Z,1017.73
2018-02-27T09:21:15.376Z,1017.75
2018-02-27T09:22:15.382Z,1017.80
2018-02-27T09:23:15.393Z,1017.78
2018-02-27T09:24:15.406Z,1017.76
2018-02-27T09:25:15.416Z,1017.77
2018-02-27T09:26:15.423Z,1017.73
2018-02-27T09:27:15.416Z,1017.70
2018-02-27T09:28:15.430Z,1017.71
2018-02-27T09:29:15.441Z,1017.69
2018-02-27T09:30:15.439Z,1017.62
2018-02-27T09:31:15.461Z,1017.58
2018-02-27T09:32:15.467Z,1017.57
2018-02-27T09:33:15.466Z,1017.61
2018-02-27T09:34:15.487Z,1017.56
2018-02-27T09:35:15.486Z,1017.57
2018-02-27T09:36:15.498Z,1017.52
2018-02-27T09:37:15.511Z,1017.49
2018-02-27T09:38:15.588Z,1017.49
2018-02-27T09:39:15.529Z,1017.46
2018-02-27T09:40:15.545Z,1017.49
2018-02-27T09:41:15.543Z,1017.50
2018-02-27T09:42:15.550Z,1017.51
2018-02-27T09:43:15.563Z,1017.47
2018-02-27T09:44:15.564Z,1017.44
2018-02-27T09:45:15.577Z,1017.45
2018-02-27T09:46:15.585Z,1017.41
2018-02-27T09:47:15.601Z,1017.41
2018-02-27T09:48:15.612Z,1017.41
2018-02-27T09:49:15.609Z,1017.39
2018-02-27T09:50:15.628Z,1017.38
2018-02-27T09:51:15.625Z,1017.38
2018-02-27T09:52:15.634Z,1017.33
2018-02-27T09:53:15.648Z,1017.35
2018-02-27T09:54:15.656Z,1017.34
2018-02-27T09:55:15.660Z,1017.34
2018-02-27T09:56:15.676Z,1017.37
2018-02-27T09:57:15.699Z,1017.35
2018-02-27T09:58:15.694Z,1017.31
2018-02-27T09:59:15.702Z,1017.37
2018-02-27T10:00:15.707Z,1017.40
2018-02-27T10:01:15.705Z,1017.34
2018-02-27T10:02:15.734Z,1017.35
2018-02-27T10:03:15.733Z,1017.37
2018-02-27T10:04:15.735Z,1017.38
2018-02-27T10:05:15.742Z,1017.33
2018-02-27T10:06:15.764Z,1017.34
2018-02-27T10:07:15.764Z,1017.35
2018-02-27T10:08:15.770Z,1017.35
2018-02-27T10:09:15.775Z,1017.35
2018-02-27T10:10:15.795Z,1017.34
2018-02-27T10:11:15.798Z,1017.37
2018-02-27T10:12:15.802Z,1017.32
2018-02-27T10:13:15.815Z,1017.30
2018-02-27T10:14:15.824Z,1017.29
2018-02-27T10:15:15.830Z,1017.31
2018-02-27T10:16:15.839Z,1017.31
2018-02-27T10:17:15.835Z,1017.29
2018-02-27T10:18:15.851Z,1017.27
2018-02-27T10:19:15.853Z,1017.32
2018-02-27T10:20:15.879Z,1017.36
2018-02-27T10:21:15.878Z,1017.33
2018-02-27T10:22:15.906Z,1017.34
2018-02-27T10:23:15.890Z,1017.30
2018-02-27T10:24:15.899Z,1017.34
2018-02-27T10:25:15.908Z,1017.35
2018-02-27T10:26:15.916Z,1017.34
2018-02-27T10:27:15.921Z,1017.34
2018-02-27T10:28:15.929Z,1017.34
2018-02-27T10:29:15.952Z,1017.32
2018-02-27T10:30:15.954Z,1017.31
2018-02-27T10:31:15.969Z,1017.27
2018-02-27T10:32:15.972Z,1017.29
2018-02-27T10:33:15.983Z,1017.22
2018-02-27T10:34:15.990Z,1017.21
2018-02-27T10:35:15.998Z,1017.22
2018-02-27T10:36:15.990Z,1017.17
2018-02-27T10:37:16.008Z,1017.18
2018-02-27T10:38:16.013Z,1017.18
2018-02-27T10:39:16.021Z,1017.18
2018-02-27T10:40:16.029Z,1017.18
2018-02-27T10:41:16.042Z,1017.19
2018-02-27T10:42:16.053Z,1017.15
2018-02-27T10:43:16.060Z,1017.16
2018-02-27T10:44:16.062Z,1017.18
2018-02-27T10:45:16.075Z,1017.14
2018-02-27T10:46:16.077Z,1017.16
2018-02-27T10:47:16.100Z,1017.11
2018-02-27T10:48:16.106Z,1017.13
2018-02-27T10:49:16.105Z,1017.07
2018-02-27T10:50:16.122Z,1017.06
2018-02-27T10:51:16.124Z,1017.04
2018-02-27T10:52:16.130Z,1017.08
2018-02-27T10:53:16.147Z,1017.05
2018-02-27T10:54:16.135Z,1017.06
2018-02-27T10:55:16.155Z,1017.02
2018-02-27T10:56:16.158Z,1017.01
2018-02-27T10:57:16.226Z,1017.01
2018-02-27T10:58:16.182Z,1017.00
2018-02-27T10:59:16.182Z,1016.99
2018-02-27T11:00:16.192Z,1016.97
2018-02-27T11:01:16.211Z,1016.90
2018-02-27T11:02:16.208Z,1016.96
2018-02-27T11:03:16.222Z,1016.95
2018-02-27T11:04:16.228Z,1016.97
2018-02-27T11:05:16.233Z,1016.95
2018-02-27T11:06:16.245Z,1016.95
2018-02-27T11:07:16.241Z,1016.91
2018-02-27T11:08:16.249Z,1016.88
2018-02-27T11:09:16.262Z,1016.95
2018-02-27T11:10:16.268Z,1016.92
2018-02-27T11:11:16.277Z,1016.91
2018-02-27T11:12:16.295Z,1016.92
2018-02-27T11:13:16.293Z,1016.92
2018-02-27T11:14:16.314Z,1016.85
2018-02-27T11:15:16.309Z,1016.90
2018-02-27T11:16:16.320Z,1016.83
2018-02-27T11:17:16.339Z,1016.83
2018-02-27T11:18:16.338Z,1016.80
2018-02-27T11:19:16.346Z,1016.81
2018-02-27T11:20:16.353Z,1016.80
2018-02-27T11:21:16.354Z,1016.82
2018-02-27T11:22:16.373Z,1016.78
2018-02-27T11:23:16.369Z,1016.83
2018-02-27T11:24:16.387Z,1016.85
2018-02-27T11:25:16.390Z,1016.87
2018-02-27T11:26:16.399Z,1016.82
2018-02-27T11:27:16.410Z,1016.86
2018-02-27T11:28:16.424Z,1016.81
2018-02-27T11:29:16.424Z,1016.87
2018-02-27T11:30:16.461Z,1016.83
2018-02-27T11:31:16.430Z,1016.81
2018-02-27T11:32:16.451Z,1016.83
2018-02-27T11:33:16.451Z,1016.80
2018-02-27T11:34:16.459Z,1016.80
2018-02-27T11:35:16.475Z,1016.74
2018-02-27T11:36:16.543Z,1016.78
2018-02-27T11:37:16.481Z,1016.77
2018-02-27T11:38:16.512Z,1016.80
2018-02-27T11:39:16.500Z,1016.72
2018-02-27T11:40:16.509Z,1016.73
2018-02-27T11:41:16.523Z,1016.71
2018-02-27T11:42:16.538Z,1016.71
2018-02-27T11:43:16.539Z,1016.74
2018-02-27T11:44:16.546Z,1016.73
2018-02-27T11:45:16.548Z,1016.72
2018-02-27T11:46:16.557Z,1016.73
2018-02-27T11:47:16.558Z,1016.70
2018-02-27T11:48:16.566Z,1016.65
2018-02-27T11:49:16.586Z,1016.68
2018-02-27T11:50:16.604Z,1016.67
2018-02-27T11:51:16.610Z,1016.65
2018-02-27T11:52:16.608Z,1016.68
2018-02-27T11:53:16.616Z,1016.65
2018-02-27T11:54:16.623Z,1016.72
2018-02-27T11:55:16.631Z,1016.70
2018-02-27T11:56:16.637Z,1016.65
2018-02-27T11:57:16.658Z,1016.65
2018-02-27T11:58:16.660Z,1016.62
2018-02-27T11:59:16.673Z,1016.65
2018-02-27T12:00:16.678Z,1016.68
2018-02-27T12:01:16.684Z,1016.69
2018-02-27T12:02:16.699Z,1016.66
2018-02-27T12:03:16.703Z,1016.65
2018-02-27T12:04:16.715Z,1016.65
2018-02-27T12:05:16.726Z,1016.69